Time;durP1;ratioP1;P1;durP2;ratioP2;P2;SDS_P1;SDS_P2;PMS_P1;PMS_P2;Temp;Humidity;BMP_temperature;BMP_pressure;BME280_temperature;BME280_humidity;BME280_pressure;Samples;Min_cycle;Max_cycle;Signal;HPM_P1;HPM_P2
2022/04/13 00:01:02;;;;;;;4.68;2.15;;;;;;;1.19;73.71;100732.38;5018393;28;20053;-59
2022/04/13 00:03:33;;;;;;;8.77;2.85;;;;;;;1.35;73.57;100730.22;5018305;28;20053;-58
2022/04/13 00:06:04;;;;;;;5.80;2.70;;;;;;;1.50;73.76;100733.25;5018331;28;20121;-58
2022/04/13 00:08:35;;;;;;;6.10;2.58;;;;;;;1.69;73.59;100737.19;5018235;28;20046;-58
2022/04/13 00:11:05;;;;;;;7.30;2.15;;;;;;;1.78;71.30;100736.59;5018193;28;20057;-59
2022/04/13 00:13:38;;;;;;;6.13;2.30;;;;;;;1.68;69.96;100751.78;5018371;28;20085;-58
2022/04/13 00:16:08;;;;;;;8.00;2.50;;;;;;;1.56;70.79;100746.28;5017961;28;20065;-58
2022/04/13 00:18:40;;;;;;;5.38;2.72;;;;;;;1.65;71.35;100746.56;5018249;28;20303;-58
2022/04/13 00:21:10;;;;;;;8.27;2.30;;;;;;;1.40;70.76;100697.75;5017692;28;20064;-57
2022/04/13 00:23:41;;;;;;;6.85;2.42;;;;;;;1.65;70.85;100751.72;5017933;28;20427;-58
2022/04/13 00:26:12;;;;;;;8.77;2.70;;;;;;;1.91;70.92;100759.28;5018258;28;20419;-57
2022/04/13 00:28:44;;;;;;;5.90;2.45;;;;;;;1.97;70.21;100756.84;5017508;28;20375;-58
2022/04/13 00:31:15;;;;;;;8.30;2.67;;;;;;;1.99;70.82;100762.91;5017740;28;20050;-58
2022/04/13 00:33:45;;;;;;;7.63;2.30;;;;;;;2.18;70.54;100773.72;5017736;28;20085;-57
2022/04/13 00:36:16;;;;;;;7.18;2.85;;;;;;;2.28;69.90;100775.69;5018149;28;20081;-57
2022/04/13 00:38:47;;;;;;;8.18;2.78;;;;;;;2.13;70.04;100761.56;5017844;28;20072;-58
2022/04/13 00:41:18;;;;;;;7.43;2.42;;;;;;;2.02;69.73;100778.47;5018010;28;20057;-57
2022/04/13 00:44:06;;;;;;;7.32;2.30;;;;;;;2.03;71.11;100789.66;5016535;28;20355;-58
2022/04/13 00:46:37;;;;;;;5.97;2.05;;;;;;;1.99;69.93;100782.66;5006671;28;20065;-58
2022/04/13 00:49:08;;;;;;;9.07;2.83;;;;;;;2.08;70.05;100799.25;5000478;28;20096;-58
2022/04/13 00:51:39;;;;;;;6.82;2.30;;;;;;;2.14;69.21;100799.41;5015815;28;20081;-57
2022/04/13 00:54:11;;;;;;;8.90;2.22;;;;;;;2.14;69.58;100794.25;5011790;28;20060;-58
2022/04/13 00:56:45;;;;;;;6.45;2.28;;;;;;;2.13;68.62;100795.09;5003419;28;20051;-58
2022/04/13 00:59:17;;;;;;;5.43;2.20;;;;;;;1.69;68.39;100701.13;5014543;28;20109;-58
2022/04/13 01:01:50;;;;;;;3.25;2.05;;;;;;;2.36;67.42;100794.81;5017441;28;20050;-58
2022/04/13 01:04:23;;;;;;;5.00;2.20;;;;;;;2.63;66.77;100798.91;5013458;28;20050;-58
2022/04/13 01:06:55;;;;;;;6.75;2.10;;;;;;;2.61;66.66;100805.75;5017579;28;20049;-58
2022/04/13 01:09:27;;;;;;;5.28;2.33;;;;;;;2.79;66.19;100795.84;5016604;28;20244;-58
2022/04/13 01:11:58;;;;;;;6.57;2.22;;;;;;;2.91;65.06;100790.13;5017279;28;20049;-59
2022/04/13 01:14:30;;;;;;;5.75;2.40;;;;;;;2.84;64.76;100786.50;5017147;28;20072;-59
2022/04/13 01:17:02;;;;;;;5.13;2.00;;;;;;;2.80;66.19;100771.81;5017329;28;20053;-59
2022/04/13 01:19:33;;;;;;;6.22;2.20;;;;;;;3.10;65.23;100799.16;5008471;28;20282;-58
2022/04/13 01:22:18;;;;;;;4.95;2.10;;;;;;;3.14;65.05;100795.78;4997389;28;20100;-58
2022/04/13 01:24:50;;;;;;;4.55;2.10;;;;;;;3.03;64.89;100796.44;4997531;28;20062;-59
2022/04/13 01:27:21;;;;;;;5.97;1.95;;;;;;;2.96;64.07;100794.53;5003703;28;20297;-59
2022/04/13 01:29:54;;;;;;;4.20;2.35;;;;;;;2.95;64.88;100808.31;5017498;28;20236;-59
2022/04/13 01:32:25;;;;;;;4.10;2.05;;;;;;;2.76;65.32;100806.13;5017018;28;20378;-58
2022/04/13 01:34:56;;;;;;;4.20;1.90;;;;;;;2.37;65.58;100814.59;5017319;28;20046;-58
2022/04/13 01:37:28;;;;;;;5.10;1.88;;;;;;;2.14;67.12;100814.88;5017164;28;20057;-58
2022/04/13 01:39:58;;;;;;;4.15;1.95;;;;;;;1.99;68.01;100813.59;5019245;28;20344;-58
2022/04/13 01:42:29;;;;;;;8.35;2.60;;;;;;;2.07;68.67;100813.00;5020699;28;20099;-59
2022/04/13 01:45:00;;;;;;;4.40;2.60;;;;;;;1.99;69.10;100819.63;5017884;28;20093;-58
2022/04/13 01:47:31;;;;;;;6.80;2.03;;;;;;;1.95;69.01;100820.38;5020888;28;20049;-59
2022/04/13 01:50:01;;;;;;;5.72;2.20;;;;;;;1.99;69.29;100824.78;5020987;28;20049;-59
2022/04/13 01:52:34;;;;;;;7.15;2.45;;;;;;;1.97;69.24;100822.97;5020426;28;20124;-59
2022/04/13 01:55:04;;;;;;;8.90;2.53;;;;;;;2.03;69.45;100821.47;5020612;28;20206;-59
2022/04/13 01:57:35;;;;;;;8.35;2.60;;;;;;;2.02;69.71;100827.47;5020510;28;20054;-58
2022/04/13 02:00:07;;;;;;;6.53;2.63;;;;;;;2.02;69.36;100827.47;5021924;28;20049;-59
2022/04/13 02:02:39;;;;;;;5.30;2.22;;;;;;;2.06;69.69;100826.69;5026658;28;20180;-59
2022/04/13 02:05:11;;;;;;;5.35;2.55;;;;;;;2.10;70.18;100828.53;5026528;28;20050;-59
2022/04/13 02:07:43;;;;;;;10.30;2.60;;;;;;;2.11;70.03;100832.84;5026850;28;20054;-59
2022/04/13 02:10:14;;;;;;;7.97;2.42;;;;;;;2.20;68.35;100839.97;5026113;28;20107;-59
2022/04/13 02:12:45;;;;;;;5.15;2.15;;;;;;;2.52;67.96;100838.22;5026523;28;20061;-59
2022/04/13 02:15:16;;;;;;;8.25;2.72;;;;;;;2.67;67.69;100831.69;5026134;28;20065;-59
2022/04/13 02:17:47;;;;;;;7.00;2.60;;;;;;;2.82;66.91;100832.06;5026470;28;20052;-59
2022/04/13 02:20:17;;;;;;;6.03;2.08;;;;;;;2.72;66.60;100824.94;5026639;28;20049;-60
2022/04/13 02:22:50;;;;;;;7.13;2.85;;;;;;;2.68;67.65;100836.03;5026710;28;20092;-59
2022/04/13 02:25:20;;;;;;;7.45;2.60;;;;;;;2.71;67.46;100834.38;5026342;28;20061;-59
2022/04/13 02:27:51;;;;;;;10.88;3.03;;;;;;;2.77;67.24;100838.81;5026534;28;20267;-59
2022/04/13 02:30:22;;;;;;;11.40;3.10;;;;;;;2.89;65.29;100828.78;5026369;28;20050;-59
2022/04/13 02:32:53;;;;;;;7.57;2.67;;;;;;;2.72;67.55;100835.25;5026396;28;20064;-59
2022/04/13 02:35:24;;;;;;;6.07;2.88;;;;;;;2.62;67.39;100838.44;5026494;28;20054;-59
2022/04/13 02:37:56;;;;;;;5.32;2.60;;;;;;;2.19;67.97;100814.13;5026272;28;20092;-59
2022/04/13 02:40:26;;;;;;;9.10;2.60;;;;;;;2.25;68.50;100828.06;5025679;28;20276;-58
2022/04/13 02:42:57;;;;;;;10.55;2.90;;;;;;;2.32;68.62;100839.41;5025765;28;20121;-59
2022/04/13 02:45:28;;;;;;;7.00;2.97;;;;;;;2.45;68.93;100851.81;5025891;28;20080;-59
2022/04/13 02:47:59;;;;;;;7.05;2.45;;;;;;;2.32;68.75;100844.56;5026109;28;20050;-59
2022/04/13 02:50:30;;;;;;;9.68;2.42;;;;;;;2.11;68.42;100844.84;5025657;28;20058;-59
2022/04/13 02:53:02;;;;;;;9.18;2.85;;;;;;;2.25;68.81;100842.66;5025791;28;20053;-59
2022/04/13 02:55:33;;;;;;;8.80;2.60;;;;;;;2.43;68.59;100845.72;5025612;28;20042;-59
2022/04/13 02:58:03;;;;;;;6.35;2.78;;;;;;;2.54;67.88;100839.13;5025819;28;20153;-59
2022/04/13 03:00:34;;;;;;;5.88;2.63;;;;;;;2.61;67.37;100840.16;5025619;28;20437;-59
2022/04/13 03:03:05;;;;;;;7.85;2.22;;;;;;;2.59;67.17;100850.41;5026259;28;20060;-59
2022/04/13 03:05:37;;;;;;;10.15;3.20;;;;;;;2.49;66.96;100840.69;5025668;28;20053;-60
2022/04/13 03:08:09;;;;;;;9.80;4.57;;;;;;;2.31;67.88;100848.84;5025928;28;20080;-60
2022/04/13 03:10:40;;;;;;;13.05;4.80;;;;;;;2.08;68.67;100855.97;5025387;28;20077;-59
2022/04/13 03:13:11;;;;;;;8.85;3.03;;;;;;;2.06;69.04;100847.31;5025345;28;20105;-59
2022/04/13 03:15:42;;;;;;;6.40;3.10;;;;;;;1.92;68.78;100848.63;5025375;28;20053;-60
2022/04/13 03:18:12;;;;;;;11.55;3.50;;;;;;;1.94;69.27;100857.28;5025706;28;20052;-59
2022/04/13 03:20:43;;;;;;;6.07;2.65;;;;;;;1.91;69.25;100852.03;5025420;28;20120;-59
2022/04/13 03:23:15;;;;;;;6.93;2.95;;;;;;;1.69;68.85;100841.13;5025290;28;20056;-59
2022/04/13 03:25:46;;;;;;;14.50;5.20;;;;;;;1.82;68.98;100869.81;5025043;28;20100;-59
2022/04/13 03:28:16;;;;;;;11.68;5.07;;;;;;;1.89;68.91;100864.00;5024652;28;20081;-59
2022/04/13 03:30:47;;;;;;;12.23;4.65;;;;;;;1.87;68.93;100860.50;5024456;28;20248;-59
2022/04/13 03:33:18;;;;;;;11.02;4.65;;;;;;;1.75;69.02;100870.47;5025437;28;20141;-60
2022/04/13 03:35:49;;;;;;;10.40;3.63;;;;;;;1.81;69.32;100870.66;5024036;28;20057;-59
2022/04/13 03:38:21;;;;;;;9.52;4.30;;;;;;;1.84;68.90;100881.03;5025193;28;20121;-59
2022/04/13 03:40:51;;;;;;;12.05;4.72;;;;;;;2.06;68.29;100888.56;5023952;28;20092;-59
2022/04/13 03:43:22;;;;;;;5.68;2.30;;;;;;;2.30;67.54;100882.34;5025054;28;20099;-59
2022/04/13 03:45:53;;;;;;;6.07;2.72;;;;;;;2.68;66.33;100869.56;5025554;28;20408;-59
2022/04/13 03:48:23;;;;;;;7.13;2.53;;;;;;;2.79;64.94;100878.44;5024941;28;20061;-60
2022/04/13 03:50:55;;;;;;;8.13;2.13;;;;;;;2.70;65.10;100873.06;5024979;28;20117;-59
2022/04/13 03:53:28;;;;;;;8.40;3.17;;;;;;;2.67;65.24;100872.97;5025318;28;20057;-59
2022/04/13 03:55:58;;;;;;;8.90;3.72;;;;;;;2.51;66.53;100876.88;5025046;28;20053;-59
2022/04/13 03:58:29;;;;;;;8.93;3.65;;;;;;;2.52;66.42;100869.19;5024773;28;20120;-59
2022/04/13 04:00:59;;;;;;;10.02;3.58;;;;;;;2.61;66.54;100878.00;5025048;28;20408;-59
2022/04/13 04:03:30;;;;;;;7.32;2.50;;;;;;;2.78;65.71;100866.38;5022092;28;20077;-59
2022/04/13 04:06:01;;;;;;;7.75;3.05;;;;;;;2.97;64.63;100863.44;5023434;28;20053;-59
2022/04/13 04:08:34;;;;;;;7.15;2.40;;;;;;;2.97;64.00;100866.00;5024014;28;20148;-59
2022/04/13 04:11:05;;;;;;;5.40;2.40;;;;;;;3.02;63.76;100867.00;5024223;28;20057;-60
2022/04/13 04:13:36;;;;;;;8.13;3.60;;;;;;;2.98;64.67;100860.00;5024711;28;20062;-60
2022/04/13 04:16:07;;;;;;;8.60;2.38;;;;;;;3.18;64.86;100849.25;5024280;28;20054;-60
2022/04/13 04:18:38;;;;;;;7.88;2.50;;;;;;;3.12;64.40;100852.59;5024337;28;20124;-59
2022/04/13 04:21:09;;;;;;;5.78;2.72;;;;;;;3.00;64.96;100850.59;5024432;28;20085;-59
2022/04/13 04:23:42;;;;;;;7.38;2.72;;;;;;;2.83;65.55;100849.31;5024300;28;20083;-59
2022/04/13 04:26:12;;;;;;;6.25;2.40;;;;;;;2.96;65.02;100845.31;5024282;28;20596;-59
2022/04/13 04:28:45;;;;;;;10.48;2.08;;;;;;;3.12;64.32;100849.09;5024162;28;20049;-59
2022/04/13 04:31:19;;;;;;;6.03;2.83;;;;;;;2.74;64.36;100807.78;5024124;28;20060;-59
2022/04/13 04:33:50;;;;;;;6.18;2.50;;;;;;;2.97;64.29;100852.19;5023763;28;20049;-59
2022/04/13 04:36:20;;;;;;;6.57;2.25;;;;;;;2.76;63.60;100862.88;5024082;28;20257;-59
2022/04/13 04:38:52;;;;;;;5.40;2.47;;;;;;;2.46;64.32;100863.84;5024002;28;20046;-59
2022/04/13 04:41:23;;;;;;;7.78;2.58;;;;;;;2.24;64.85;100864.13;5023955;28;20351;-59
2022/04/13 04:43:54;;;;;;;8.48;2.55;;;;;;;2.20;66.18;100849.38;5023868;28;20221;-59
2022/04/13 04:46:24;;;;;;;3.63;2.22;;;;;;;2.13;66.11;100849.22;5023650;28;20128;-59
2022/04/13 04:48:55;;;;;;;5.10;2.10;;;;;;;2.12;66.28;100852.66;5024221;28;20061;-59
2022/04/13 04:51:26;;;;;;;5.57;2.10;;;;;;;2.02;66.70;100850.66;5023948;28;20082;-59
2022/04/13 04:53:58;;;;;;;6.22;2.58;;;;;;;2.04;67.10;100869.59;5023917;28;20049;-59
2022/04/13 04:56:29;;;;;;;6.53;2.50;;;;;;;2.07;67.69;100863.66;5024033;28;20053;-59
2022/04/13 04:59:00;;;;;;;3.53;2.30;;;;;;;2.12;67.57;100867.22;5022798;28;20283;-59
2022/04/13 05:01:30;;;;;;;6.22;1.90;;;;;;;2.15;66.61;100868.19;5023907;28;20062;-59
2022/04/13 05:04:01;;;;;;;4.10;2.42;;;;;;;2.03;66.92;100873.00;5023805;28;20061;-59
2022/04/13 05:06:32;;;;;;;3.10;1.80;;;;;;;1.96;67.52;100865.94;5022659;28;20059;-58
2022/04/13 05:09:04;;;;;;;4.45;2.20;;;;;;;1.93;67.46;100876.16;5023698;28;20053;-59
2022/04/13 05:11:35;;;;;;;4.85;2.10;;;;;;;1.99;68.21;100880.59;5023071;28;20053;-59
2022/04/13 05:14:06;;;;;;;4.40;2.20;;;;;;;2.00;67.95;100883.25;5024605;28;20066;-59
2022/04/13 05:16:36;;;;;;;4.72;2.30;;;;;;;1.98;67.49;100884.91;5027401;28;20057;-59
2022/04/13 05:19:07;;;;;;;7.30;2.42;;;;;;;2.00;67.68;100875.50;5027910;28;20332;-59
2022/04/13 05:21:38;;;;;;;4.82;2.20;;;;;;;2.04;67.87;100879.91;5028006;28;20053;-59
2022/04/13 05:24:11;;;;;;;7.88;2.60;;;;;;;2.11;67.94;100892.13;5026007;28;20053;-59
2022/04/13 05:26:41;;;;;;;6.00;2.25;;;;;;;2.07;66.75;100885.16;5025742;28;20096;-59
2022/04/13 05:29:12;;;;;;;4.78;2.20;;;;;;;2.04;67.00;100887.63;5025136;28;20062;-59
2022/04/13 05:31:42;;;;;;;5.55;2.75;;;;;;;2.08;67.08;100889.47;5026410;28;20076;-59
2022/04/13 05:34:13;;;;;;;11.95;5.50;;;;;;;2.00;67.12;100893.56;5026185;28;20052;-59
2022/04/13 05:36:44;;;;;;;12.52;6.20;;;;;;;2.01;67.44;100890.13;5025762;28;20057;-59
2022/04/13 05:39:16;;;;;;;9.02;4.35;;;;;;;2.03;67.50;100897.91;5026865;28;20117;-59
2022/04/13 05:41:47;;;;;;;9.27;3.47;;;;;;;1.95;67.58;100895.13;5026238;28;20096;-59
2022/04/13 05:44:17;;;;;;;13.55;7.20;;;;;;;2.04;68.03;100900.53;5025818;28;20037;-59
2022/04/13 05:46:48;;;;;;;11.57;8.30;;;;;;;1.88;67.74;100896.63;5026508;28;20054;-59
2022/04/13 05:49:19;;;;;;;17.13;6.55;;;;;;;1.83;68.54;100900.78;5026712;28;20068;-59
2022/04/13 05:51:49;;;;;;;42.75;16.63;;;;;;;1.85;68.56;100903.41;5026608;28;20061;-60
2022/04/13 05:54:22;;;;;;;15.32;6.47;;;;;;;1.88;68.71;100893.19;5026426;28;20205;-59
2022/04/13 05:56:52;;;;;;;7.82;3.30;;;;;;;1.94;68.31;100903.66;5025521;28;20053;-60
2022/04/13 05:59:23;;;;;;;25.02;9.13;;;;;;;1.93;68.16;100907.94;5025885;28;20306;-59
2022/04/13 06:01:53;;;;;;;13.23;4.88;;;;;;;1.89;67.83;100900.09;5026230;28;20118;-59
2022/04/13 06:04:25;;;;;;;22.77;8.45;;;;;;;1.82;67.59;100918.78;5025646;28;20101;-59
2022/04/13 06:06:56;;;;;;;21.58;9.73;;;;;;;1.76;67.72;100910.88;5025779;28;20042;-59
2022/04/13 06:09:28;;;;;;;19.55;7.68;;;;;;;1.75;67.75;100911.69;5025652;28;20075;-60
2022/04/13 06:11:59;;;;;;;13.85;5.13;;;;;;;1.72;68.70;100907.31;5025672;28;20511;-59
2022/04/13 06:14:30;;;;;;;10.65;4.60;;;;;;;1.73;68.80;100909.94;5026397;28;20347;-59
2022/04/13 06:17:05;;;;;;;15.45;7.55;;;;;;;1.73;68.68;100909.94;5025629;28;20135;-59
2022/04/13 06:19:36;;;;;;;13.10;5.82;;;;;;;1.63;68.41;100917.38;5026042;28;20322;-59
2022/04/13 06:22:07;;;;;;;10.93;4.10;;;;;;;1.49;68.80;100920.38;5025811;28;20057;-59
2022/04/13 06:24:39;;;;;;;7.07;2.78;;;;;;;1.40;68.62;100919.22;5025330;28;20064;-59
2022/04/13 06:27:10;;;;;;;7.53;2.80;;;;;;;1.36;69.29;100917.38;5024870;28;20235;-59
2022/04/13 06:29:41;;;;;;;8.77;3.88;;;;;;;1.34;69.39;100929.31;5025671;28;20053;-59
2022/04/13 06:32:12;;;;;;;16.42;5.78;;;;;;;1.31;69.03;100934.38;5025624;28;20612;-59
2022/04/13 06:34:43;;;;;;;20.65;8.60;;;;;;;1.23;69.19;100937.59;5025568;28;20061;-59
2022/04/13 06:37:14;;;;;;;13.20;4.32;;;;;;;1.18;68.73;100928.84;5025460;28;20124;-59
2022/04/13 06:39:46;;;;;;;14.70;6.15;;;;;;;1.16;69.32;100935.63;5025723;28;20053;-59
2022/04/13 06:42:17;;;;;;;7.93;3.88;;;;;;;1.05;69.67;100942.16;5024867;28;20140;-59
2022/04/13 06:44:48;;;;;;;8.80;4.43;;;;;;;1.06;70.53;100949.91;5025452;28;20076;-59
2022/04/13 06:47:19;;;;;;;7.75;3.58;;;;;;;1.09;70.36;100949.13;5025522;28;20061;-59
2022/04/13 06:49:50;;;;;;;8.48;3.92;;;;;;;1.11;70.24;100957.78;5024894;28;20111;-59
2022/04/13 06:52:20;;;;;;;8.32;3.78;;;;;;;1.05;70.21;100967.88;5024614;28;20059;-59
2022/04/13 06:54:53;;;;;;;6.68;3.00;;;;;;;1.06;70.54;100967.91;5024692;28;20068;-59
2022/04/13 06:57:23;;;;;;;6.07;3.03;;;;;;;1.11;70.26;100967.22;5024733;28;20139;-59
2022/04/13 06:59:55;;;;;;;7.70;3.35;;;;;;;1.08;70.30;100967.97;5025418;28;20050;-59
2022/04/13 07:02:27;;;;;;;8.15;3.50;;;;;;;1.11;70.84;100973.22;5024808;28;20061;-59
2022/04/13 07:04:58;;;;;;;6.40;3.08;;;;;;;1.06;70.83;100967.03;5024589;28;20053;-59
2022/04/13 07:07:29;;;;;;;6.30;3.33;;;;;;;0.95;70.99;100981.22;5025268;28;20061;-59
2022/04/13 07:10:02;;;;;;;8.70;3.45;;;;;;;0.86;71.62;100990.41;5025126;28;20054;-59
2022/04/13 07:12:42;;;;;;;8.45;3.55;;;;;;;0.81;71.99;100989.38;5024345;28;20091;-59
2022/04/13 07:15:16;;;;;;;7.82;3.20;;;;;;;0.79;72.93;100985.84;5024933;28;20232;-60
2022/04/13 07:17:57;;;;;;;6.80;3.13;;;;;;;0.48;73.16;100965.06;5024614;28;20268;-59
2022/04/13 07:20:28;;;;;;;9.63;3.58;;;;;;;0.67;74.06;101000.00;5024009;28;20041;-59
2022/04/13 07:22:58;;;;;;;7.60;3.60;;;;;;;0.66;74.11;100999.13;5024352;28;20101;-59
2022/04/13 07:25:31;;;;;;;7.70;3.72;;;;;;;0.69;74.69;101004.38;5024139;28;20115;-59
2022/04/13 07:28:02;;;;;;;7.22;3.53;;;;;;;0.76;74.68;101001.19;5024446;28;20077;-60
2022/04/13 07:30:33;;;;;;;9.68;3.25;;;;;;;0.78;74.78;101009.84;5024672;28;20068;-59
2022/04/13 07:33:04;;;;;;;4.97;3.13;;;;;;;0.75;74.84;100999.47;5024317;28;20084;-59
2022/04/13 07:35:35;;;;;;;11.23;4.90;;;;;;;0.79;75.30;101006.44;5024473;28;20062;-59
2022/04/13 07:38:05;;;;;;;23.98;7.53;;;;;;;0.77;75.38;101020.94;5021354;28;20050;-59
2022/04/13 07:40:38;;;;;;;21.25;7.32;;;;;;;0.70;75.17;101013.84;5023188;28;20041;-59
2022/04/13 07:43:09;;;;;;;17.35;7.70;;;;;;;0.71;75.48;101023.31;5024091;28;20351;-58
2022/04/13 07:45:41;;;;;;;8.60;4.03;;;;;;;0.79;75.21;101016.72;5023722;28;20068;-59
2022/04/13 07:48:12;;;;;;;8.30;3.80;;;;;;;0.81;74.62;101021.94;5021876;28;20060;-59
2022/04/13 07:50:43;;;;;;;8.18;4.32;;;;;;;0.83;74.83;101028.88;5024117;28;20042;-59
2022/04/13 07:53:14;;;;;;;12.00;4.18;;;;;;;0.91;75.04;101025.72;5022617;28;20060;-58
2022/04/13 07:55:46;;;;;;;10.05;4.05;;;;;;;1.02;74.71;101034.66;5024238;28;20056;-58
2022/04/13 07:58:17;;;;;;;12.38;5.40;;;;;;;1.00;74.42;101026.00;5024174;28;20113;-59
2022/04/13 08:00:47;;;;;;;11.60;3.25;;;;;;;0.94;73.89;101020.66;5022732;28;20160;-59
2022/04/13 08:03:18;;;;;;;6.50;3.50;;;;;;;0.89;73.69;101032.50;5023579;28;20080;-59
2022/04/13 08:06:04;;;;;;;6.90;4.05;;;;;;;0.89;73.99;101027.34;5023359;28;20054;-59
2022/04/13 08:08:35;;;;;;;7.43;3.38;;;;;;;0.93;73.83;101022.38;5024201;28;20057;-59
2022/04/13 08:11:08;;;;;;;6.80;3.55;;;;;;;0.88;74.00;101043.63;5023795;28;20061;-59
2022/04/13 08:13:38;;;;;;;10.68;4.20;;;;;;;0.80;73.90;101033.94;5024012;28;20089;-59
2022/04/13 08:16:18;;;;;;;8.55;4.00;;;;;;;0.72;73.61;101035.34;5023829;28;20053;-59
2022/04/13 08:18:48;;;;;;;7.22;4.13;;;;;;;0.71;74.29;101043.88;5023876;28;20091;-59
2022/04/13 08:21:19;;;;;;;8.07;3.33;;;;;;;0.72;74.11;101055.91;5023782;28;20282;-59
2022/04/13 08:23:50;;;;;;;10.10;3.40;;;;;;;0.69;74.12;101055.81;5023285;28;20352;-59
2022/04/13 08:26:22;;;;;;;9.82;3.65;;;;;;;0.59;73.75;101069.16;5023422;28;20061;-59
2022/04/13 08:28:53;;;;;;;10.90;3.42;;;;;;;0.52;74.01;101062.03;5023561;28;20050;-59
2022/04/13 08:31:23;;;;;;;13.00;4.38;;;;;;;0.50;74.33;101068.81;5023489;28;20117;-59
2022/04/13 08:33:54;;;;;;;22.55;7.72;;;;;;;0.47;74.28;101079.00;5023777;28;20400;-59
2022/04/13 08:36:25;;;;;;;32.38;11.07;;;;;;;0.45;74.47;101075.47;5023060;28;20077;-58
2022/04/13 08:38:55;;;;;;;17.35;6.30;;;;;;;0.46;74.55;101077.25;5023659;28;20060;-58
2022/04/13 08:41:39;;;;;;;9.40;3.97;;;;;;;0.49;74.96;101083.38;5021982;28;20046;-59
2022/04/13 08:44:17;;;;;;;7.78;3.35;;;;;;;0.43;74.34;101073.75;5022904;28;20077;-59
2022/04/13 08:46:50;;;;;;;7.68;3.58;;;;;;;0.41;74.49;101080.50;5023189;28;20328;-58
2022/04/13 08:49:21;;;;;;;6.30;2.95;;;;;;;0.22;74.23;101083.19;5022175;28;20057;-59
2022/04/13 08:52:04;;;;;;;6.65;3.53;;;;;;;0.20;74.68;101090.84;5022757;28;20046;-59
2022/04/13 08:54:42;;;;;;;21.63;7.65;;;;;;;0.13;74.74;101088.88;5023114;28;20060;-59
2022/04/13 08:57:18;;;;;;;29.63;11.07;;;;;;;0.07;74.71;101098.00;5023133;28;20068;-59
2022/04/13 09:00:03;;;;;;;16.77;7.93;;;;;;;0.06;75.24;101098.84;5022552;28;20072;-58
2022/04/13 09:02:50;;;;;;;12.82;4.30;;;;;;;0.06;75.55;101091.13;5023145;28;20156;-58
2022/04/13 09:05:25;;;;;;;7.13;3.38;;;;;;;0.05;75.71;101104.78;5023117;28;20045;-58
2022/04/13 09:08:07;;;;;;;8.07;3.55;;;;;;;0.02;75.89;101099.53;5022579;28;20061;-59
2022/04/13 09:10:38;;;;;;;6.00;2.90;;;;;;;-0.02;75.89;101114.84;5021336;28;20229;-59
2022/04/13 09:13:12;;;;;;;6.63;3.10;;;;;;;-0.15;75.77;101097.19;5021856;28;20065;-58
2022/04/13 09:15:44;;;;;;;7.93;3.63;;;;;;;-0.13;75.85;101110.94;5022325;28;20045;-58
2022/04/13 09:18:18;;;;;;;9.55;3.60;;;;;;;-0.09;76.50;101117.97;5022271;28;20084;-62
2022/04/13 09:20:48;;;;;;;6.10;3.47;;;;;;;-0.11;76.40;101114.44;5022163;28;20125;-58
2022/04/13 09:23:21;;;;;;;9.07;3.53;;;;;;;-0.10;76.51;101116.22;5022539;28;20116;-58
2022/04/13 09:25:53;;;;;;;7.82;3.40;;;;;;;-0.16;76.55;101108.25;5022041;28;20381;-58
2022/04/13 09:28:25;;;;;;;10.93;3.60;;;;;;;-0.14;76.68;101129.75;5022691;28;20640;-58
2022/04/13 09:30:56;;;;;;;6.65;3.33;;;;;;;-0.11;77.21;101124.72;5023015;28;20076;-58
2022/04/13 09:33:27;;;;;;;9.02;3.33;;;;;;;-0.06;77.28;101142.91;5023042;28;20061;-58
2022/04/13 09:35:58;;;;;;;8.95;3.53;;;;;;;-0.01;77.33;101149.97;5022468;28;20046;-58
2022/04/13 09:38:29;;;;;;;8.13;3.28;;;;;;;-0.10;77.20;101131.63;5022850;28;20060;-58
2022/04/13 09:41:08;;;;;;;17.55;5.32;;;;;;;0.05;76.95;101145.91;5022454;28;20057;-58
2022/04/13 09:43:41;;;;;;;19.70;7.03;;;;;;;0.07;76.70;101144.28;5022923;28;20062;-58
2022/04/13 09:46:28;;;;;;;12.93;5.97;;;;;;;0.02;77.01;101140.63;5022800;28;20092;-58
2022/04/13 09:49:12;;;;;;;18.13;7.00;;;;;;;0.02;76.68;101151.78;5022666;28;20073;-58
2022/04/13 09:51:44;;;;;;;25.60;13.65;;;;;;;-0.09;76.91;101169.34;5022733;28;20108;-58
2022/04/13 09:54:16;;;;;;;19.52;10.15;;;;;;;-0.10;76.97;101170.16;5022829;28;20577;-58
2022/04/13 09:56:48;;;;;;;13.77;7.30;;;;;;;-0.02;77.28;101184.19;5022508;28;20054;-58
2022/04/13 09:59:28;;;;;;;13.10;6.22;;;;;;;-0.02;77.06;101189.34;5022555;28;20081;-58
2022/04/13 10:01:59;;;;;;;17.42;5.68;;;;;;;0.02;77.61;101185.19;5026117;28;20060;-58
2022/04/13 10:04:32;;;;;;;12.52;5.20;;;;;;;0.06;77.61;101194.78;5026326;28;20061;-58
2022/04/13 10:07:16;;;;;;;12.50;4.80;;;;;;;-0.03;77.52;101190.13;5026212;28;20053;-58
2022/04/13 10:09:47;;;;;;;10.40;4.40;;;;;;;-0.01;77.99;101203.94;5026229;28;20058;-57
2022/04/13 10:12:18;;;;;;;10.05;4.25;;;;;;;-0.09;78.26;101210.44;5025614;28;20057;-57
2022/04/13 10:14:50;;;;;;;13.73;4.50;;;;;;;-0.13;78.21;101211.13;5025778;28;20054;-57
2022/04/13 10:17:22;;;;;;;8.02;3.75;;;;;;;-0.19;78.81;101213.44;5025983;28;20477;-57
2022/04/13 10:19:57;;;;;;;6.80;3.25;;;;;;;-0.21;78.78;101220.22;5025433;28;20050;-58
2022/04/13 10:22:28;;;;;;;9.25;3.55;;;;;;;-0.28;79.18;101229.34;5025824;28;20068;-57
2022/04/13 10:25:20;;;;;;;6.13;3.42;;;;;;;-0.24;79.71;101232.94;5025706;28;20057;-57
2022/04/13 10:27:57;;;;;;;6.97;3.40;;;;;;;-0.20;79.48;101242.53;5026090;28;20263;-57
2022/04/13 10:30:32;;;;;;;7.80;3.45;;;;;;;-0.21;79.72;101245.88;5025657;28;20112;-57
2022/04/13 10:33:04;;;;;;;8.50;3.38;;;;;;;-0.52;79.75;101208.63;5025541;28;20367;-58
2022/04/13 10:35:36;;;;;;;8.65;3.25;;;;;;;-0.78;79.93;101193.75;5025662;28;20348;-58
2022/04/13 10:38:07;;;;;;;11.20;3.67;;;;;;;-0.49;80.69;101254.09;5025896;28;20251;-57
2022/04/13 10:40:40;;;;;;;8.50;3.03;;;;;;;-0.76;80.70;101212.66;5024805;28;20054;-57
2022/04/13 10:43:12;;;;;;;4.85;3.33;;;;;;;-0.47;80.87;101268.75;5025136;28;20388;-57
2022/04/13 10:45:49;;;;;;;11.13;3.78;;;;;;;-0.45;80.56;101267.13;5024319;28;20072;-57
2022/04/13 10:48:29;;;;;;;8.95;3.67;;;;;;;-0.48;80.73;101266.09;5025240;28;20060;-57
2022/04/13 10:51:08;;;;;;;7.70;3.78;;;;;;;-0.48;81.21;101281.50;5025333;28;20057;-57
2022/04/13 10:53:47;;;;;;;10.45;3.22;;;;;;;-0.63;81.34;101276.56;5025656;28;20077;-57
2022/04/13 10:56:22;;;;;;;6.22;3.08;;;;;;;-0.77;81.58;101282.78;5025387;28;20108;-57
2022/04/13 10:59:00;;;;;;;4.35;2.83;;;;;;;-0.81;81.89;101286.00;5025270;28;20097;-57
2022/04/13 11:01:39;;;;;;;5.35;3.10;;;;;;;-0.81;81.83;101286.00;5025234;28;20084;-57
2022/04/13 11:04:14;;;;;;;6.40;3.25;;;;;;;-0.89;82.24;101278.84;5025178;28;20488;-57
2022/04/13 11:06:47;;;;;;;4.00;2.90;;;;;;;-0.70;82.60;101289.94;5025222;28;20295;-57
2022/04/13 11:09:25;;;;;;;6.60;2.90;;;;;;;-0.71;82.04;101288.19;5024904;28;20129;-57
2022/04/13 11:11:58;;;;;;;6.10;3.10;;;;;;;-0.63;82.23;101291.97;5024707;28;20240;-57
2022/04/13 11:14:28;;;;;;;7.72;4.00;;;;;;;-0.54;82.34;101287.25;5024610;28;20345;-57
2022/04/13 11:17:28;;;;;;;8.60;3.95;;;;;;;-0.49;82.03;101301.19;5024965;28;20050;-57
2022/04/13 11:20:18;;;;;;;14.30;5.35;;;;;;;-0.40;82.03;101294.69;5024040;28;20136;-57
2022/04/13 11:23:13;;;;;;;9.93;4.47;;;;;;;-0.23;82.53;101310.03;5024920;28;20053;-57
2022/04/13 11:25:58;;;;;;;6.95;4.15;;;;;;;-0.25;81.88;101316.81;5024452;28;20063;-57
2022/04/13 11:28:31;;;;;;;10.32;4.45;;;;;;;-0.22;81.63;101303.22;5024478;28;20056;-57
2022/04/13 11:31:08;;;;;;;11.13;4.03;;;;;;;-0.30;81.47;101296.84;5023315;28;20046;-57
2022/04/13 11:33:50;;;;;;;7.13;5.40;;;;;;;-0.75;81.27;101245.22;5024436;28;20053;-57
2022/04/13 11:36:22;;;;;;;16.45;9.30;;;;;;;-0.29;81.11;101314.03;5022461;28;20125;-57
2022/04/13 11:39:14;;;;;;;24.52;12.65;;;;;;;-0.26;81.05;101315.03;5023589;28;20037;-57
2022/04/13 11:41:54;;;;;;;19.83;10.63;;;;;;;-0.21;80.80;101317.81;5024218;28;20064;-57
2022/04/13 11:44:25;;;;;;;24.63;13.10;;;;;;;-0.21;81.01;101312.69;5024139;28;20100;-57
2022/04/13 11:47:15;;;;;;;17.98;9.05;;;;;;;-0.23;80.84;101316.88;5024167;28;20054;-57
2022/04/13 11:50:02;;;;;;;;;;;;;;;-0.21;80.84;101317.81;5024508;28;20085;-57
2022/04/13 11:52:43;;;;;;;21.30;6.00;;;;;;;-0.23;80.21;101319.44;5023535;28;20319;-57
2022/04/13 11:55:18;;;;;;;10.70;3.58;;;;;;;-0.32;79.97;101313.91;5024242;28;20081;-57